Terminal Aerodrome Forecast
Issued by NWS Topeka, KS

Home | Current Version | Previous Version | Text Only | Print | Product List | Glossary Off
Versions: 1 2 3 4 5 6 7 8 9 10 11 12 13 14 15 16 17 18 19

000
FTUS43 KTOP 231900 AAA
TAFTOP
TAF AMD
KTOP 231959Z 2320/2418 13008KT P6SM VCTS BKN015CB
     FM232100 13011KT P6SM -TSRA BKN015CB
     FM240200 13009KT 4SM RA VCTS BKN008CB
     FM240700 14008KT P6SM SHRA BKN010 OVC030=

USA.gov is the U.S. government's official web portal to all federal, state and local government web resources and services.